createdAt,value
2018-07-06T00:02:10.091Z,17.80
2018-07-06T00:04:49.827Z,17.80
2018-07-06T00:07:29.542Z,17.80
2018-07-06T00:10:09.194Z,17.70
2018-07-06T00:12:48.826Z,17.70
2018-07-06T00:15:28.470Z,17.80
2018-07-06T00:18:08.226Z,17.70
2018-07-06T00:20:47.870Z,17.60
2018-07-06T00:23:27.599Z,17.50
2018-07-06T00:26:07.330Z,17.40
2018-07-06T00:28:47.704Z,17.40
2018-07-06T00:31:27.423Z,17.30
2018-07-06T00:34:07.287Z,17.30
2018-07-06T00:36:47.061Z,17.20
2018-07-06T00:39:26.822Z,17.20
2018-07-06T00:42:06.747Z,17.20
2018-07-06T00:44:46.587Z,17.10
2018-07-06T00:47:26.312Z,17.10
2018-07-06T00:50:06.095Z,17.00
2018-07-06T00:52:46.030Z,17.00
2018-07-06T00:55:25.791Z,16.90
2018-07-06T00:58:05.479Z,16.90
2018-07-06T01:00:45.275Z,16.80
2018-07-06T01:03:24.976Z,16.80
2018-07-06T01:06:04.775Z,16.70
2018-07-06T01:08:44.556Z,16.70
2018-07-06T01:11:24.308Z,16.70
2018-07-06T01:14:03.971Z,16.70
2018-07-06T01:16:43.754Z,16.70
2018-07-06T01:19:23.449Z,16.60
2018-07-06T01:22:03.291Z,16.70
2018-07-06T01:24:43.044Z,16.70
2018-07-06T01:27:22.714Z,16.60
2018-07-06T01:30:02.367Z,16.60
2018-07-06T01:32:42.391Z,16.50
2018-07-06T01:35:22.086Z,16.40
2018-07-06T01:38:01.790Z,16.50
2018-07-06T01:40:41.618Z,16.50
2018-07-06T01:43:21.379Z,16.50
2018-07-06T01:46:01.061Z,16.40
2018-07-06T01:48:40.866Z,16.40
2018-07-06T01:51:20.566Z,16.40
2018-07-06T01:54:00.192Z,16.40
2018-07-06T01:56:39.904Z,16.30
2018-07-06T01:59:19.589Z,16.30
2018-07-06T02:01:59.210Z,16.30
2018-07-06T02:04:38.894Z,16.20
2018-07-06T02:07:18.767Z,16.10
2018-07-06T02:09:58.723Z,16.20
2018-07-06T02:12:38.536Z,16.10
2018-07-06T02:15:18.282Z,16.10
2018-07-06T02:17:58.086Z,15.90
2018-07-06T02:20:37.886Z,15.90
2018-07-06T02:23:17.495Z,15.90
2018-07-06T02:25:57.174Z,15.80
2018-07-06T02:28:36.866Z,15.70
2018-07-06T02:31:16.512Z,15.70
2018-07-06T02:33:56.200Z,15.70
2018-07-06T02:36:35.918Z,15.80
2018-07-06T02:39:15.891Z,15.70
2018-07-06T02:41:55.650Z,15.70
2018-07-06T02:44:35.680Z,15.70
2018-07-06T02:47:16.030Z,15.80
2018-07-06T02:49:55.751Z,15.70
2018-07-06T02:52:35.663Z,15.60
2018-07-06T02:55:15.695Z,15.60
2018-07-06T02:57:55.586Z,15.60
2018-07-06T03:00:35.474Z,15.60
2018-07-06T03:03:15.382Z,15.60
2018-07-06T03:05:55.099Z,15.60
2018-07-06T03:08:34.733Z,15.50
2018-07-06T03:11:14.456Z,15.40
2018-07-06T03:16:27.910Z,15.40
2018-07-06T03:19:07.687Z,15.50
2018-07-06T03:21:47.415Z,15.60
2018-07-06T03:24:27.166Z,15.60
2018-07-06T03:27:06.955Z,15.60
2018-07-06T03:29:46.888Z,15.70
2018-07-06T03:32:26.703Z,15.80
2018-07-06T03:35:06.454Z,15.80
2018-07-06T03:37:46.179Z,15.80
2018-07-06T03:40:25.986Z,15.90
2018-07-06T03:43:05.775Z,15.90
2018-07-06T03:45:45.714Z,15.90
2018-07-06T03:48:27.981Z,15.90
2018-07-06T03:51:08.671Z,16.00
2018-07-06T03:53:49.023Z,16.00
2018-07-06T03:56:28.911Z,16.10
2018-07-06T03:59:08.723Z,16.10
2018-07-06T04:01:48.412Z,16.10
2018-07-06T04:04:28.109Z,16.10
2018-07-06T04:07:08.058Z,16.10
2018-07-06T04:09:48.169Z,16.20
2018-07-06T04:12:27.968Z,16.20
2018-07-06T04:15:07.637Z,16.20
2018-07-06T04:17:47.342Z,16.30
2018-07-06T04:20:27.258Z,16.30
2018-07-06T04:23:06.883Z,16.40
2018-07-06T04:25:46.442Z,16.40
2018-07-06T04:28:26.106Z,16.50
2018-07-06T04:31:05.803Z,16.40
2018-07-06T04:33:45.514Z,16.40
2018-07-06T04:36:25.346Z,16.30
2018-07-06T04:39:05.502Z,16.30
2018-07-06T04:41:45.548Z,16.30
2018-07-06T04:44:25.300Z,16.30
2018-07-06T04:47:04.940Z,16.30
2018-07-06T04:49:44.646Z,16.40
2018-07-06T04:52:24.331Z,16.30
2018-07-06T04:55:04.247Z,16.30
2018-07-06T04:57:43.912Z,16.40
2018-07-06T05:00:23.591Z,16.40
2018-07-06T05:03:03.187Z,16.40
2018-07-06T05:05:42.964Z,16.40
2018-07-06T05:08:22.615Z,16.40
2018-07-06T05:11:02.269Z,16.40
2018-07-06T05:13:41.890Z,16.40
2018-07-06T05:16:21.744Z,16.40
2018-07-06T05:19:01.491Z,16.40
2018-07-06T05:21:41.367Z,16.40
2018-07-06T05:24:21.159Z,16.40
2018-07-06T05:27:00.918Z,16.40
2018-07-06T05:29:40.755Z,16.40
2018-07-06T05:32:20.707Z,16.40
2018-07-06T05:35:00.823Z,16.40
2018-07-06T05:37:40.735Z,16.40
2018-07-06T05:40:20.426Z,16.40
2018-07-06T05:43:00.249Z,16.50
2018-07-06T05:45:39.910Z,16.50
2018-07-06T05:48:19.682Z,16.60
2018-07-06T05:50:59.271Z,16.60
2018-07-06T05:53:39.031Z,16.60
2018-07-06T05:56:19.107Z,16.60
2018-07-06T05:58:58.952Z,16.60
2018-07-06T06:01:38.614Z,16.60
2018-07-06T06:04:18.466Z,16.60
2018-07-06T06:06:58.470Z,16.60
2018-07-06T06:09:26.973Z,16.70
2018-07-06T06:11:55.455Z,16.60
2018-07-06T06:14:24.219Z,16.70
2018-07-06T06:16:52.795Z,16.70
2018-07-06T06:19:21.386Z,16.70
2018-07-06T06:21:49.970Z,16.70
2018-07-06T06:24:18.447Z,16.70
2018-07-06T06:26:46.911Z,16.70
2018-07-06T06:29:15.418Z,16.70
2018-07-06T06:31:44.019Z,16.70
2018-07-06T06:34:12.558Z,16.60
2018-07-06T06:36:41.073Z,16.60
2018-07-06T06:39:09.811Z,16.60
2018-07-06T06:41:38.391Z,16.70
2018-07-06T06:44:07.041Z,16.70
2018-07-06T06:46:35.675Z,16.70
2018-07-06T06:49:04.594Z,16.70
2018-07-06T06:51:33.351Z,16.80
2018-07-06T06:54:01.908Z,16.70
2018-07-06T06:56:30.654Z,16.80
2018-07-06T06:58:59.282Z,16.80
2018-07-06T07:01:27.742Z,16.80
2018-07-06T07:03:56.314Z,16.80
2018-07-06T07:06:24.915Z,16.80
2018-07-06T07:08:53.411Z,16.80
2018-07-06T07:11:22.223Z,16.80
2018-07-06T07:13:51.270Z,16.70
2018-07-06T07:16:19.830Z,16.70
2018-07-06T07:18:48.668Z,16.70
2018-07-06T07:21:18.502Z,16.70
2018-07-06T07:23:47.108Z,16.70
2018-07-06T07:26:15.880Z,16.70
2018-07-06T07:28:44.573Z,16.70
2018-07-06T07:31:13.130Z,16.70
2018-07-06T07:33:41.670Z,16.70
2018-07-06T07:36:10.246Z,16.70
2018-07-06T07:41:07.329Z,16.70
2018-07-06T07:43:35.978Z,16.70
2018-07-06T07:46:04.530Z,16.80
2018-07-06T07:48:33.103Z,16.80
2018-07-06T07:51:12.886Z,16.80
2018-07-06T07:53:52.750Z,16.80
2018-07-06T07:56:21.374Z,16.90
2018-07-06T07:58:49.950Z,16.80
2018-07-06T08:01:18.646Z,16.90
2018-07-06T08:03:47.068Z,16.90
2018-07-06T08:06:15.611Z,16.90
2018-07-06T08:08:44.349Z,16.90
2018-07-06T08:11:13.090Z,16.90
2018-07-06T08:13:41.645Z,17.00
2018-07-06T08:16:10.143Z,17.00
2018-07-06T08:18:38.764Z,17.00
2018-07-06T08:21:07.258Z,17.00
2018-07-06T08:23:35.782Z,17.00
2018-07-06T08:26:04.451Z,17.10
2018-07-06T08:28:32.931Z,17.10
2018-07-06T08:31:01.402Z,17.10
2018-07-06T08:33:33.408Z,17.20
2018-07-06T08:36:46.719Z,17.30
2018-07-06T08:39:15.199Z,17.30
2018-07-06T08:41:43.978Z,17.40
2018-07-06T08:44:12.735Z,17.40
2018-07-06T08:46:41.198Z,17.50
2018-07-06T08:49:09.680Z,17.50
2018-07-06T08:51:38.349Z,17.50
2018-07-06T08:54:06.880Z,17.50
2018-07-06T08:56:35.343Z,17.50
2018-07-06T08:59:04.012Z,17.50
2018-07-06T09:01:32.503Z,17.50
2018-07-06T09:04:01.222Z,17.60
2018-07-06T09:06:29.709Z,17.60
2018-07-06T09:08:58.359Z,17.50
2018-07-06T09:11:26.939Z,17.50
2018-07-06T09:13:55.512Z,17.50
2018-07-06T09:16:24.004Z,17.60
2018-07-06T09:18:52.550Z,17.60
2018-07-06T09:21:21.059Z,17.70
2018-07-06T09:23:49.672Z,17.80
2018-07-06T09:26:18.187Z,17.80
2018-07-06T09:28:46.791Z,17.80
2018-07-06T09:31:15.401Z,17.90
2018-07-06T09:33:43.910Z,18.00
2018-07-06T09:36:12.503Z,18.20
2018-07-06T09:38:41.119Z,18.50
2018-07-06T09:41:09.632Z,18.60
2018-07-06T09:43:38.155Z,18.70
2018-07-06T09:46:06.848Z,18.90
2018-07-06T09:48:35.358Z,18.90
2018-07-06T09:51:03.870Z,18.90
2018-07-06T09:53:32.354Z,18.80
2018-07-06T09:56:00.862Z,18.90
2018-07-06T09:58:29.353Z,19.00
2018-07-06T10:00:59.356Z,19.00
2018-07-06T10:03:28.738Z,19.00
2018-07-06T10:05:57.310Z,19.00
2018-07-06T10:08:25.810Z,19.00
2018-07-06T10:10:54.413Z,19.00
2018-07-06T10:13:23.003Z,19.00
2018-07-06T10:15:51.501Z,19.20
2018-07-06T10:18:20.138Z,19.40
2018-07-06T10:20:48.646Z,19.60
2018-07-06T10:23:17.156Z,19.80
2018-07-06T10:25:45.722Z,20.10
2018-07-06T10:28:29.312Z,20.10
2018-07-06T10:31:21.384Z,20.30
2018-07-06T10:33:49.912Z,20.50
2018-07-06T10:36:18.484Z,20.40
2018-07-06T10:38:47.172Z,20.30
2018-07-06T10:41:15.699Z,20.20
2018-07-06T10:43:44.183Z,20.40
2018-07-06T10:46:12.885Z,20.50
2018-07-06T10:48:41.395Z,20.80
2018-07-06T10:51:09.979Z,20.90
2018-07-06T10:53:38.515Z,20.90
2018-07-06T10:56:07.147Z,20.90
2018-07-06T10:58:35.661Z,20.80
2018-07-06T11:01:04.420Z,20.80
2018-07-06T11:03:32.954Z,20.80
2018-07-06T11:06:01.671Z,20.90
2018-07-06T11:10:58.368Z,21.30
2018-07-06T11:13:26.975Z,21.30
2018-07-06T11:15:55.515Z,21.30
2018-07-06T11:18:24.371Z,21.30
2018-07-06T11:20:53.210Z,21.40
2018-07-06T11:23:21.774Z,21.40
2018-07-06T11:25:50.302Z,21.60
2018-07-06T11:28:18.894Z,21.60
2018-07-06T11:30:47.402Z,21.60
2018-07-06T11:35:44.239Z,21.60
2018-07-06T11:38:12.946Z,21.70
2018-07-06T11:40:41.346Z,21.80
2018-07-06T11:43:09.848Z,21.80
2018-07-06T11:45:38.987Z,21.80
2018-07-06T11:48:07.518Z,21.70
2018-07-06T11:50:36.006Z,21.80
2018-07-06T11:53:04.524Z,21.80
2018-07-06T11:55:32.988Z,21.80
2018-07-06T11:58:01.669Z,22.00
2018-07-06T12:00:30.160Z,21.90
2018-07-06T12:02:59.015Z,22.00
2018-07-06T12:05:27.621Z,22.00
2018-07-06T12:07:56.118Z,22.10
2018-07-06T12:10:24.814Z,22.30
2018-07-06T12:12:53.596Z,22.30
2018-07-06T12:15:22.363Z,22.20
2018-07-06T12:17:50.918Z,22.10
2018-07-06T12:20:19.827Z,22.10
2018-07-06T12:22:48.315Z,22.30
2018-07-06T12:25:16.985Z,22.40
2018-07-06T12:27:45.501Z,22.30
2018-07-06T12:30:14.031Z,22.20
2018-07-06T12:32:42.743Z,22.20
2018-07-06T12:35:11.363Z,22.10
2018-07-06T12:37:40.252Z,22.10
2018-07-06T12:40:09.370Z,22.20
2018-07-06T12:42:37.993Z,22.30
2018-07-06T12:45:06.604Z,22.20
2018-07-06T12:47:35.300Z,22.20
2018-07-06T12:50:04.588Z,22.20
2018-07-06T12:52:33.452Z,22.40
2018-07-06T12:55:02.195Z,22.60
2018-07-06T12:57:30.876Z,22.70
2018-07-06T12:59:59.344Z,22.80
2018-07-06T13:02:28.036Z,22.80
2018-07-06T13:04:56.543Z,22.80
2018-07-06T13:07:25.099Z,22.80
2018-07-06T13:09:53.675Z,22.60
2018-07-06T13:12:22.460Z,22.50
2018-07-06T13:14:50.989Z,22.40
2018-07-06T13:17:19.555Z,22.30
2018-07-06T13:19:48.060Z,22.40
2018-07-06T13:22:16.646Z,22.60
2018-07-06T13:24:45.179Z,22.70
2018-07-06T13:27:13.797Z,22.70
2018-07-06T13:29:42.332Z,22.70
2018-07-06T13:32:11.048Z,22.60
2018-07-06T13:34:39.647Z,22.70
2018-07-06T13:37:08.371Z,22.80
2018-07-06T13:39:37.018Z,22.80
2018-07-06T13:42:05.656Z,22.70
2018-07-06T13:44:34.267Z,22.60
2018-07-06T13:47:03.138Z,22.60
2018-07-06T13:49:31.727Z,22.60
2018-07-06T13:52:00.325Z,22.60
2018-07-06T13:54:28.835Z,22.60
2018-07-06T13:56:57.391Z,22.70
2018-07-06T13:59:26.134Z,22.70
2018-07-06T14:01:54.641Z,22.70
2018-07-06T14:04:23.502Z,22.70
2018-07-06T14:06:52.072Z,22.70
2018-07-06T14:09:20.549Z,22.60
2018-07-06T14:11:49.300Z,22.50
2018-07-06T14:14:17.754Z,22.50
2018-07-06T14:16:46.260Z,22.50
2018-07-06T14:19:14.878Z,22.50
2018-07-06T14:21:43.543Z,22.50
2018-07-06T14:24:12.044Z,22.60
2018-07-06T14:26:40.731Z,22.60
2018-07-06T14:29:09.243Z,22.60
2018-07-06T14:31:37.703Z,22.70
2018-07-06T14:34:06.193Z,22.90
2018-07-06T14:39:03.226Z,23.00
2018-07-06T14:41:31.743Z,23.00
2018-07-06T14:44:00.270Z,23.00
2018-07-06T14:46:28.759Z,23.00
2018-07-06T14:48:57.403Z,23.00
2018-07-06T14:51:26.084Z,23.00
2018-07-06T14:53:54.729Z,23.00
2018-07-06T14:56:23.307Z,23.00
2018-07-06T14:58:51.874Z,23.00
2018-07-06T15:01:20.497Z,23.00
2018-07-06T15:03:49.127Z,23.00
2018-07-06T15:06:17.804Z,23.10
2018-07-06T15:08:46.869Z,23.20
2018-07-06T15:11:15.418Z,23.20
2018-07-06T15:13:44.126Z,23.30
2018-07-06T15:16:12.755Z,23.20
2018-07-06T15:18:41.295Z,23.20
2018-07-06T15:23:38.258Z,23.10
2018-07-06T15:26:06.798Z,23.10
2018-07-06T15:28:35.456Z,23.20
2018-07-06T15:31:04.187Z,23.20
2018-07-06T15:33:32.802Z,23.20
2018-07-06T15:36:01.372Z,23.20
2018-07-06T15:40:58.139Z,23.30
2018-07-06T15:43:26.672Z,23.30
2018-07-06T15:45:55.406Z,23.30
2018-07-06T15:48:23.940Z,23.20
2018-07-06T15:50:52.516Z,23.10
2018-07-06T15:53:21.046Z,23.10
2018-07-06T15:55:49.579Z,23.10
2018-07-06T15:58:18.240Z,23.10
2018-07-06T16:00:47.094Z,23.10
2018-07-06T16:03:15.592Z,23.10
2018-07-06T16:05:44.486Z,23.00
2018-07-06T16:08:13.178Z,23.00
2018-07-06T16:10:41.824Z,23.00
2018-07-06T16:13:10.326Z,23.00
2018-07-06T16:15:38.833Z,23.00
2018-07-06T16:18:07.417Z,22.90
2018-07-06T16:20:35.944Z,23.00
2018-07-06T16:23:04.486Z,23.00
2018-07-06T16:25:33.144Z,23.00
2018-07-06T16:28:01.684Z,22.90
2018-07-06T16:30:30.191Z,22.90
2018-07-06T16:32:58.758Z,22.90
2018-07-06T16:35:27.256Z,22.80
2018-07-06T16:37:55.803Z,22.80
2018-07-06T16:40:24.423Z,22.80
2018-07-06T16:42:53.039Z,22.80
2018-07-06T16:45:21.669Z,22.80
2018-07-06T16:47:50.456Z,22.80
2018-07-06T16:50:19.107Z,22.80
2018-07-06T16:52:48.079Z,22.80
2018-07-06T16:55:16.579Z,23.00
2018-07-06T16:57:45.135Z,23.00
2018-07-06T17:00:13.753Z,23.00
2018-07-06T17:02:42.338Z,22.90
2018-07-06T17:05:10.863Z,23.20
2018-07-06T17:10:07.719Z,22.80
2018-07-06T17:12:36.283Z,22.80
2018-07-06T17:15:04.911Z,22.80
2018-07-06T17:17:33.493Z,22.90
2018-07-06T17:20:01.963Z,22.80
2018-07-06T17:22:30.487Z,22.80
2018-07-06T17:24:59.069Z,22.80
2018-07-06T17:27:27.611Z,22.70
2018-07-06T17:29:56.184Z,22.70
2018-07-06T17:32:24.767Z,22.70
2018-07-06T17:34:53.331Z,22.70
2018-07-06T17:39:50.119Z,22.60
2018-07-06T17:42:18.906Z,22.60
2018-07-06T17:44:47.663Z,22.50
2018-07-06T17:47:16.196Z,22.50
2018-07-06T17:49:44.816Z,22.40
2018-07-06T17:52:13.404Z,22.30
2018-07-06T17:54:41.983Z,22.30
2018-07-06T17:57:10.516Z,22.20
2018-07-06T17:59:39.059Z,22.10
2018-07-06T18:04:35.882Z,22.00
2018-07-06T18:07:04.422Z,22.00
2018-07-06T18:09:32.946Z,21.90
2018-07-06T18:12:01.468Z,21.90
2018-07-06T18:14:29.990Z,21.80
2018-07-06T18:16:58.627Z,21.80
2018-07-06T18:19:27.555Z,21.80
2018-07-06T18:21:56.140Z,21.70
2018-07-06T18:24:24.742Z,21.70
2018-07-06T18:26:53.286Z,21.70
2018-07-06T18:31:50.127Z,21.60
2018-07-06T18:34:18.768Z,21.50
2018-07-06T18:36:47.443Z,21.50
2018-07-06T18:39:16.170Z,21.50
2018-07-06T18:44:13.282Z,21.30
2018-07-06T18:46:41.852Z,21.40
2018-07-06T18:49:10.507Z,21.30
2018-07-06T18:51:39.077Z,21.20
2018-07-06T18:54:07.616Z,21.20
2018-07-06T18:56:36.475Z,21.20
2018-07-06T18:59:05.299Z,21.10
2018-07-06T19:01:34.042Z,21.10
2018-07-06T19:04:02.727Z,21.00
2018-07-06T19:11:27.689Z,20.90
2018-07-06T19:13:56.519Z,20.80
2018-07-06T19:16:25.215Z,20.70
2018-07-06T19:18:53.749Z,20.70
2018-07-06T19:21:22.341Z,20.70
2018-07-06T19:23:50.875Z,20.70
2018-07-06T19:26:19.505Z,20.60
2018-07-06T19:28:48.025Z,20.50
2018-07-06T19:31:17.180Z,20.50
2018-07-06T19:33:46.147Z,20.50
2018-07-06T19:36:14.769Z,20.50
2018-07-06T19:38:43.479Z,20.40
2018-07-06T19:41:12.222Z,20.40
2018-07-06T19:43:40.899Z,20.40
2018-07-06T19:46:09.373Z,20.30
2018-07-06T19:48:37.934Z,20.30
2018-07-06T19:51:06.648Z,20.20
2018-07-06T19:53:35.213Z,20.20
2018-07-06T19:56:03.883Z,20.20
2018-07-06T19:58:32.368Z,20.20
2018-07-06T20:01:00.936Z,20.20
2018-07-06T20:03:29.531Z,20.20
2018-07-06T20:05:58.459Z,20.20
2018-07-06T20:08:27.449Z,20.10
2018-07-06T20:10:55.954Z,20.10
2018-07-06T20:13:24.554Z,20.10
2018-07-06T20:15:53.058Z,20.00
2018-07-06T20:18:21.621Z,20.00
2018-07-06T20:20:50.229Z,20.00
2018-07-06T20:23:18.860Z,19.90
2018-07-06T20:25:47.469Z,19.90
2018-07-06T20:28:16.036Z,19.90
2018-07-06T20:30:44.731Z,19.80
2018-07-06T20:33:13.465Z,19.80
2018-07-06T20:35:42.004Z,19.70
2018-07-06T20:38:10.792Z,19.60
2018-07-06T20:40:39.310Z,19.60
2018-07-06T20:43:07.884Z,19.50
2018-07-06T20:45:36.491Z,19.50
2018-07-06T20:48:05.199Z,19.40
2018-07-06T20:50:33.785Z,19.40
2018-07-06T20:53:02.605Z,19.30
2018-07-06T20:55:31.336Z,19.30
2018-07-06T20:58:00.008Z,19.20
2018-07-06T21:00:28.615Z,19.10
2018-07-06T21:02:57.114Z,19.10
2018-07-06T21:05:25.792Z,19.00
2018-07-06T21:07:54.474Z,18.90
2018-07-06T21:10:23.072Z,18.90
2018-07-06T21:12:51.579Z,18.90
2018-07-06T21:15:20.080Z,18.80
2018-07-06T21:17:48.564Z,18.80
2018-07-06T21:20:17.135Z,18.70
2018-07-06T21:22:45.828Z,18.70
2018-07-06T21:25:14.383Z,18.70
2018-07-06T21:27:43.196Z,18.70
2018-07-06T21:30:11.883Z,18.60
2018-07-06T21:32:40.564Z,18.60
2018-07-06T21:35:09.200Z,18.60
2018-07-06T21:37:37.868Z,18.50
2018-07-06T21:40:06.386Z,18.50
2018-07-06T21:42:35.021Z,18.50
2018-07-06T21:45:03.568Z,18.50
2018-07-06T21:47:32.263Z,18.40
2018-07-06T21:50:00.835Z,18.40
2018-07-06T21:52:29.294Z,18.40
2018-07-06T21:54:58.016Z,18.40
2018-07-06T21:57:26.787Z,18.40
2018-07-06T21:59:55.530Z,18.40
2018-07-06T22:02:24.102Z,18.40
2018-07-06T22:04:52.608Z,18.40
2018-07-06T22:07:21.347Z,18.40
2018-07-06T22:09:50.239Z,18.30
2018-07-06T22:12:19.018Z,18.30
2018-07-06T22:14:47.555Z,18.30
2018-07-06T22:17:16.091Z,18.30
2018-07-06T22:19:44.583Z,18.30
2018-07-06T22:22:13.079Z,18.30
2018-07-06T22:24:41.818Z,18.20
2018-07-06T22:27:10.371Z,18.20
2018-07-06T22:29:38.882Z,18.20
2018-07-06T22:32:07.412Z,18.20
2018-07-06T22:34:36.016Z,18.20
2018-07-06T22:37:04.774Z,18.20
2018-07-06T22:39:33.292Z,18.30
2018-07-06T22:42:01.795Z,18.20
2018-07-06T22:44:30.299Z,18.20
2018-07-06T22:46:58.862Z,18.20
2018-07-06T22:51:55.786Z,18.20
2018-07-06T22:54:24.325Z,18.20
2018-07-06T22:56:52.898Z,18.20
2018-07-06T22:59:21.407Z,18.20
2018-07-06T23:01:50.066Z,18.10
2018-07-06T23:04:18.576Z,18.10
2018-07-06T23:06:47.307Z,18.10
2018-07-06T23:09:15.766Z,18.10
2018-07-06T23:11:44.287Z,18.00
2018-07-06T23:14:12.756Z,18.00
2018-07-06T23:16:41.384Z,18.10
2018-07-06T23:19:10.079Z,18.10
2018-07-06T23:21:38.616Z,18.00
2018-07-06T23:24:07.192Z,17.90
2018-07-06T23:26:35.666Z,17.90
2018-07-06T23:29:04.295Z,17.90
2018-07-06T23:31:32.861Z,17.90
2018-07-06T23:34:01.481Z,17.90
2018-07-06T23:36:29.919Z,17.90
2018-07-06T23:38:58.609Z,17.90
2018-07-06T23:41:27.102Z,17.90
2018-07-06T23:43:55.639Z,17.90
2018-07-06T23:46:24.300Z,17.90
2018-07-06T23:48:53.012Z,17.90
2018-07-06T23:51:21.502Z,17.90
2018-07-06T23:53:49.983Z,17.80
2018-07-06T23:56:18.515Z,17.80
2018-07-06T23:58:47.023Z,17.80
